Time;durP1;ratioP1;P1;durP2;ratioP2;P2;SDS_P1;SDS_P2;PMS_P1;PMS_P2;Temp;Humidity;BMP_temperature;BMP_pressure;BME280_temperature;BME280_humidity;BME280_pressure;Samples;Min_cycle;Max_cycle;Signal;HPM_P1;HPM_P2
2023/04/17 00:01:05;;;;;;;7.07;3.70;;;9.80;98.00;;;;;;4994661;28;20457;-66
2023/04/17 00:03:32;;;;;;;6.60;3.30;;;9.80;98.00;;;;;;4995032;28;20897;-66
2023/04/17 00:05:59;;;;;;;7.47;4.00;;;9.80;98.00;;;;;;4994698;28;20465;-66
2023/04/17 00:08:26;;;;;;;8.17;3.63;;;9.70;98.00;;;;;;4994781;28;20463;-66
2023/04/17 00:10:55;;;;;;;5.87;3.17;;;9.90;98.00;;;;;;4994557;28;20526;-66
2023/04/17 00:13:22;;;;;;;10.27;4.10;;;10.00;98.00;;;;;;4994687;28;20462;-66
2023/04/17 00:15:49;;;;;;;6.23;3.83;;;10.00;98.00;;;;;;4994305;28;20464;-66
2023/04/17 00:18:16;;;;;;;6.10;3.57;;;10.00;98.00;;;;;;4994708;28;20489;-66
2023/04/17 00:20:45;;;;;;;7.73;3.70;;;10.00;98.00;;;;;;4992795;28;20452;-66
2023/04/17 00:23:12;;;;;;;6.33;3.33;;;10.10;98.00;;;;;;4994082;28;20495;-66
2023/04/17 00:25:39;;;;;;;7.43;3.57;;;10.00;98.00;;;;;;4994201;28;20469;-66
2023/04/17 00:28:08;;;;;;;6.00;3.87;;;10.10;98.00;;;;;;4994115;28;20475;-66
2023/04/17 00:30:35;;;;;;;7.70;4.00;;;10.20;98.00;;;;;;4994020;28;20514;-66
2023/04/17 00:33:05;;;;;;;8.40;4.10;;;10.10;98.00;;;;;;4993901;28;20476;-66
2023/04/17 00:35:32;;;;;;;7.83;3.67;;;10.10;98.00;;;;;;4993760;28;20850;-66
2023/04/17 00:38:01;;;;;;;5.50;3.27;;;10.10;98.00;;;;;;4993091;28;20471;-66
2023/04/17 00:40:29;;;;;;;6.17;3.40;;;10.10;98.00;;;;;;4992613;28;20875;-66
2023/04/17 00:43:00;;;;;;;5.70;3.33;;;10.10;98.00;;;;;;4993746;28;20484;-66
2023/04/17 00:45:29;;;;;;;6.00;3.50;;;10.10;98.00;;;;;;4993902;28;20530;-66
2023/04/17 00:47:58;;;;;;;7.07;3.60;;;10.00;98.00;;;;;;4993808;28;20463;-66
2023/04/17 00:50:27;;;;;;;5.00;3.30;;;9.90;98.00;;;;;;4993361;28;20464;-66
2023/04/17 00:52:55;;;;;;;7.53;3.80;;;9.80;98.00;;;;;;4993760;28;20468;-66
2023/04/17 00:55:22;;;;;;;7.40;3.67;;;9.70;98.00;;;;;;4993809;28;20527;-66
2023/04/17 00:57:49;;;;;;;7.40;3.80;;;9.70;98.00;;;;;;4993495;28;20953;-66
2023/04/17 01:00:20;;;;;;;7.50;3.40;;;9.70;98.00;;;;;;4993810;28;20463;-66
2023/04/17 01:02:48;;;;;;;10.80;4.17;;;9.70;98.00;;;;;;4993504;28;20467;-66
2023/04/17 01:05:15;;;;;;;9.30;3.47;;;9.70;98.00;;;;;;4992787;28;20556;-66
2023/04/17 01:07:42;;;;;;;8.33;3.60;;;9.90;98.00;;;;;;4992916;28;21024;-66
2023/04/17 01:10:10;;;;;;;9.00;4.23;;;9.80;98.00;;;;;;4992978;28;20468;-66
2023/04/17 01:12:37;;;;;;;8.30;4.20;;;9.80;98.00;;;;;;4993435;28;20957;-66
2023/04/17 01:15:05;;;;;;;7.47;4.30;;;9.70;98.00;;;;;;4993302;28;20464;-66
2023/04/17 01:17:32;;;;;;;8.10;4.27;;;9.70;98.00;;;;;;4993275;28;20851;-66
2023/04/17 01:20:05;;;;;;;7.60;3.23;;;9.70;98.00;;;;;;4993322;28;20466;-66
2023/04/17 01:22:32;;;;;;;7.00;3.30;;;9.70;98.00;;;;;;4993181;28;20475;-66
2023/04/17 01:25:00;;;;;;;6.60;3.37;;;9.70;98.00;;;;;;4992783;28;20543;-66
2023/04/17 01:27:27;;;;;;;6.83;3.73;;;9.70;98.00;;;;;;4993331;28;20473;-66
2023/04/17 01:29:55;;;;;;;6.53;3.50;;;9.60;98.00;;;;;;4993160;28;20459;-66
2023/04/17 01:32:22;;;;;;;6.90;3.90;;;9.60;98.00;;;;;;4992747;28;20466;-66
2023/04/17 01:34:50;;;;;;;9.07;4.00;;;9.60;98.00;;;;;;4992906;28;20518;-66
2023/04/17 01:37:17;;;;;;;7.07;3.50;;;9.60;98.00;;;;;;4991067;28;20471;-67
2023/04/17 01:39:45;;;;;;;6.20;3.37;;;9.50;98.00;;;;;;4993035;28;20475;-66
2023/04/17 01:42:14;;;;;;;5.90;3.43;;;9.50;98.00;;;;;;4993059;28;20549;-66
2023/04/17 01:44:41;;;;;;;7.13;3.50;;;9.60;98.00;;;;;;4992841;28;20488;-66
2023/04/17 01:47:11;;;;;;;6.30;3.40;;;9.50;98.00;;;;;;4992353;28;20460;-66
2023/04/17 01:49:38;;;;;;;8.33;3.53;;;9.40;98.00;;;;;;4992875;28;20471;-66
2023/04/17 01:52:05;;;;;;;6.37;3.47;;;9.40;98.00;;;;;;4992614;28;20461;-66
2023/04/17 01:54:32;;;;;;;8.30;3.60;;;9.40;98.00;;;;;;4991912;28;20451;-66
2023/04/17 01:57:00;;;;;;;6.40;3.33;;;9.40;98.00;;;;;;4992734;28;20450;-66
2023/04/17 01:59:30;;;;;;;7.80;3.80;;;9.30;98.00;;;;;;4992811;28;20804;-66
2023/04/17 02:01:57;;;;;;;7.87;3.90;;;9.40;98.00;;;;;;4991548;28;20863;-67
2023/04/17 02:04:24;;;;;;;5.03;3.23;;;9.40;98.00;;;;;;4992561;28;20488;-66
2023/04/17 02:06:51;;;;;;;9.33;3.77;;;9.40;98.00;;;;;;4991278;28;20513;-66
2023/04/17 02:09:18;;;;;;;8.10;3.90;;;9.50;98.00;;;;;;4992553;28;20467;-66
2023/04/17 02:11:46;;;;;;;10.07;3.70;;;9.40;98.00;;;;;;4992484;28;20452;-66
2023/04/17 02:14:14;;;;;;;8.60;3.10;;;9.40;98.00;;;;;;4992326;28;20524;-66
2023/04/17 02:16:44;;;;;;;7.93;3.93;;;9.40;98.00;;;;;;4992298;28;20471;-66
2023/04/17 02:19:11;;;;;;;6.80;3.57;;;9.40;98.00;;;;;;4992406;28;20468;-66
2023/04/17 02:21:40;;;;;;;6.50;3.07;;;9.40;98.00;;;;;;4991316;28;20525;-66
2023/04/17 02:24:08;;;;;;;6.13;3.50;;;9.50;98.00;;;;;;4992526;28;20491;-66
2023/04/17 02:26:35;;;;;;;9.37;4.60;;;9.50;98.00;;;;;;4992381;28;20463;-66
2023/04/17 02:29:02;;;;;;;6.80;3.47;;;9.50;98.00;;;;;;4992536;28;20496;-66
2023/04/17 02:31:32;;;;;;;7.50;4.37;;;9.50;98.00;;;;;;4992452;28;20472;-66
2023/04/17 02:34:01;;;;;;;6.50;3.00;;;9.50;98.00;;;;;;4992398;28;20468;-66
2023/04/17 02:36:30;;;;;;;10.20;4.00;;;9.50;98.00;;;;;;4992134;28;20458;-66
2023/04/17 02:38:57;;;;;;;6.40;3.43;;;9.50;98.00;;;;;;4991100;28;20464;-66
2023/04/17 02:41:25;;;;;;;6.37;3.30;;;9.40;98.00;;;;;;4991234;28;20457;-66
2023/04/17 02:43:52;;;;;;;5.40;2.90;;;9.40;98.00;;;;;;4992330;28;21070;-66
2023/04/17 02:46:19;;;;;;;6.57;3.43;;;9.50;98.00;;;;;;4992398;28;20480;-66
2023/04/17 02:48:46;;;;;;;5.83;3.40;;;9.50;98.00;;;;;;4992329;28;20476;-66
2023/04/17 02:51:14;;;;;;;7.60;4.20;;;9.50;98.00;;;;;;4992284;28;20464;-66
2023/04/17 02:53:42;;;;;;;5.27;3.10;;;9.60;98.00;;;;;;4992484;28;20508;-66
2023/04/17 02:56:09;;;;;;;8.60;3.80;;;9.60;98.00;;;;;;4992203;28;20941;-66
2023/04/17 02:58:36;;;;;;;7.73;3.50;;;9.60;98.00;;;;;;4992453;28;20463;-66
2023/04/17 03:01:05;;;;;;;5.27;3.70;;;9.50;98.00;;;;;;4995193;28;20543;-66
2023/04/17 03:03:33;;;;;;;8.87;4.00;;;9.60;98.00;;;;;;4995523;28;20495;-67
2023/04/17 03:06:01;;;;;;;6.33;3.43;;;9.60;98.00;;;;;;4995713;28;20460;-66
2023/04/17 03:08:34;;;;;;;6.50;3.47;;;9.60;98.00;;;;;;4995799;28;20471;-66
2023/04/17 03:11:02;;;;;;;6.57;3.90;;;9.60;98.00;;;;;;4995544;28;20462;-66
2023/04/17 03:13:30;;;;;;;6.03;3.77;;;9.70;98.00;;;;;;4995363;28;20460;-66
2023/04/17 03:15:57;;;;;;;5.23;3.40;;;9.70;98.00;;;;;;4995346;28;20456;-66
2023/04/17 03:18:24;;;;;;;9.70;3.77;;;9.70;98.00;;;;;;4995662;28;20500;-66
2023/04/17 03:20:52;;;;;;;6.10;3.20;;;9.60;98.00;;;;;;4995407;28;20977;-66
2023/04/17 03:23:20;;;;;;;8.40;3.97;;;9.50;98.00;;;;;;4995339;28;20462;-66
2023/04/17 03:25:50;;;;;;;11.50;4.60;;;9.50;98.00;;;;;;4995297;28;20467;-66
2023/04/17 03:28:17;;;;;;;7.90;3.63;;;9.40;98.00;;;;;;4995296;28;20525;-66
2023/04/17 03:30:45;;;;;;;10.10;4.53;;;9.40;98.00;;;;;;4995272;28;20547;-66
2023/04/17 03:33:12;;;;;;;11.03;4.57;;;9.40;98.00;;;;;;4995118;28;20887;-66
2023/04/17 03:35:39;;;;;;;6.50;3.30;;;9.40;98.00;;;;;;4995442;28;20518;-66
2023/04/17 03:38:06;;;;;;;11.43;4.50;;;9.40;98.00;;;;;;4995378;28;20547;-66
2023/04/17 03:40:34;;;;;;;12.93;4.53;;;9.40;98.00;;;;;;4995343;28;20468;-66
2023/04/17 03:43:02;;;;;;;7.60;4.00;;;9.50;98.00;;;;;;4995162;28;20479;-66
2023/04/17 03:45:29;;;;;;;12.80;4.70;;;9.40;98.00;;;;;;4995204;28;20564;-65
2023/04/17 03:47:57;;;;;;;7.10;3.13;;;9.40;98.00;;;;;;4995082;28;20469;-65
2023/04/17 03:50:24;;;;;;;7.70;4.80;;;9.40;98.00;;;;;;4995433;28;20531;-66
2023/04/17 03:52:52;;;;;;;12.47;5.00;;;9.30;98.00;;;;;;4995109;28;20463;-65
2023/04/17 03:55:19;;;;;;;11.07;4.10;;;9.30;98.00;;;;;;4995189;28;20461;-65
2023/04/17 03:57:47;;;;;;;9.40;4.47;;;9.40;98.00;;;;;;4994635;28;20521;-65
2023/04/17 04:00:17;;;;;;;6.70;3.60;;;9.40;98.00;;;;;;4994697;28;20464;-65
2023/04/17 04:02:44;;;;;;;11.67;4.40;;;9.30;98.00;;;;;;4994686;28;20460;-65
2023/04/17 04:05:11;;;;;;;7.23;4.20;;;9.30;98.00;;;;;;4994917;28;20844;-65
2023/04/17 04:07:38;;;;;;;8.40;3.90;;;9.30;98.00;;;;;;4994595;28;20452;-66
2023/04/17 04:10:07;;;;;;;9.00;3.97;;;9.30;98.00;;;;;;4994410;28;20541;-66
2023/04/17 04:12:34;;;;;;;8.03;4.47;;;9.20;98.00;;;;;;4994224;28;20488;-66
2023/04/17 04:15:01;;;;;;;6.90;3.33;;;9.20;98.00;;;;;;4994254;28;20452;-65
2023/04/17 04:17:30;;;;;;;9.50;4.07;;;9.20;98.00;;;;;;4994011;28;20459;-65
2023/04/17 04:19:57;;;;;;;7.90;3.73;;;9.30;98.00;;;;;;4994218;28;20472;-65
2023/04/17 04:22:24;;;;;;;10.43;4.20;;;9.40;98.00;;;;;;4994192;28;20483;-65
2023/04/17 04:24:52;;;;;;;7.80;3.60;;;9.30;98.00;;;;;;4994107;28;20520;-65
2023/04/17 04:27:21;;;;;;;7.63;3.33;;;9.40;98.00;;;;;;4994192;28;20467;-65
2023/04/17 04:29:48;;;;;;;12.10;3.87;;;9.40;98.00;;;;;;4994215;28;20460;-65
2023/04/17 04:32:16;;;;;;;7.33;3.67;;;9.40;98.00;;;;;;4993735;28;20466;-66
2023/04/17 04:34:44;;;;;;;9.27;3.80;;;9.40;98.00;;;;;;4994221;28;20464;-66
2023/04/17 04:37:14;;;;;;;15.00;4.80;;;9.40;98.00;;;;;;4994245;28;20464;-65
2023/04/17 04:39:41;;;;;;;7.30;3.37;;;9.40;98.00;;;;;;4994296;28;20453;-65
2023/04/17 04:42:10;;;;;;;9.13;4.20;;;9.50;98.00;;;;;;4994083;28;20470;-65
2023/04/17 04:44:37;;;;;;;8.70;4.03;;;9.50;98.00;;;;;;4994132;28;21015;-65
2023/04/17 04:47:05;;;;;;;6.30;3.30;;;9.50;98.00;;;;;;4994088;28;20455;-66
2023/04/17 04:49:32;;;;;;;6.30;3.60;;;9.50;98.00;;;;;;4994064;28;20461;-65
2023/04/17 04:52:00;;;;;;;8.67;4.37;;;9.50;98.00;;;;;;4993644;28;20460;-65
2023/04/17 04:54:27;;;;;;;8.03;4.10;;;9.50;98.00;;;;;;4993765;28;20452;-65
2023/04/17 04:56:55;;;;;;;8.30;4.27;;;9.60;98.00;;;;;;4993592;28;20471;-65
2023/04/17 04:59:22;;;;;;;8.77;4.10;;;9.50;98.00;;;;;;4993645;28;20456;-65
2023/04/17 05:01:49;;;;;;;7.33;3.97;;;9.50;98.00;;;;;;4993375;28;20529;-65
2023/04/17 05:04:18;;;;;;;7.40;3.80;;;9.40;98.00;;;;;;4993394;28;20491;-66
2023/04/17 05:06:45;;;;;;;8.90;4.50;;;9.50;98.00;;;;;;4992218;28;20508;-66
2023/04/17 05:09:14;;;;;;;5.60;3.37;;;9.40;98.00;;;;;;4993513;28;20531;-65
2023/04/17 05:11:41;;;;;;;9.60;4.67;;;9.40;98.00;;;;;;4992021;28;20567;-65
2023/04/17 05:14:09;;;;;;;13.33;4.20;;;9.50;98.00;;;;;;4993229;28;20463;-66
2023/04/17 05:16:37;;;;;;;7.63;3.60;;;9.50;98.00;;;;;;4993271;28;20524;-65
2023/04/17 05:19:05;;;;;;;8.77;4.57;;;9.50;98.00;;;;;;4993381;28;20503;-66
2023/04/17 05:21:32;;;;;;;9.80;4.67;;;9.50;98.00;;;;;;4993259;28;20466;-66
2023/04/17 05:23:59;;;;;;;6.00;3.67;;;9.50;98.00;;;;;;4992511;28;20483;-66
2023/04/17 05:26:29;;;;;;;11.73;4.90;;;9.50;98.00;;;;;;4991886;28;20460;-66
2023/04/17 05:28:56;;;;;;;11.90;4.83;;;9.50;98.00;;;;;;4992819;28;20465;-65
2023/04/17 05:31:23;;;;;;;10.30;5.13;;;9.60;98.00;;;;;;4993120;28;20517;-65
2023/04/17 05:33:50;;;;;;;16.70;5.27;;;9.60;98.00;;;;;;4993039;28;20462;-66
2023/04/17 05:36:17;;;;;;;9.77;4.20;;;9.50;98.00;;;;;;4993113;28;20931;-66
2023/04/17 05:38:45;;;;;;;9.30;4.40;;;9.60;98.00;;;;;;4993179;28;20465;-66
2023/04/17 05:41:12;;;;;;;11.33;4.90;;;9.70;98.00;;;;;;4991728;28;20467;-66
2023/04/17 05:43:43;;;;;;;8.37;4.63;;;9.70;98.00;;;;;;4993095;28;20530;-65
2023/04/17 05:46:10;;;;;;;10.53;4.43;;;9.70;98.00;;;;;;4992852;28;20492;-66
2023/04/17 05:48:37;;;;;;;11.97;4.50;;;9.80;98.00;;;;;;4992753;28;20465;-66
2023/04/17 05:51:05;;;;;;;11.80;5.00;;;9.80;98.00;;;;;;4992858;28;20463;-66
2023/04/17 05:53:32;;;;;;;8.03;4.87;;;9.70;98.00;;;;;;4991717;28;20460;-65
2023/04/17 05:56:00;;;;;;;9.27;4.27;;;9.70;98.00;;;;;;4992763;28;20863;-65
2023/04/17 05:58:27;;;;;;;12.27;5.17;;;9.60;98.00;;;;;;4991537;28;20455;-66
2023/04/17 06:00:57;;;;;;;9.40;4.50;;;9.60;98.00;;;;;;4992583;28;20463;-63
2023/04/17 06:03:24;;;;;;;11.70;4.80;;;9.60;98.00;;;;;;4992742;28;20456;-62
2023/04/17 06:05:52;;;;;;;10.80;4.20;;;9.50;98.00;;;;;;4992283;28;20491;-62
2023/04/17 06:08:19;;;;;;;9.30;5.50;;;9.50;98.00;;;;;;4992726;28;20557;-62
2023/04/17 06:10:46;;;;;;;11.90;4.90;;;9.60;98.00;;;;;;4991171;28;20466;-62
2023/04/17 06:13:13;;;;;;;9.57;4.47;;;9.80;98.00;;;;;;4992325;28;20465;-62
2023/04/17 06:15:40;;;;;;;8.50;4.07;;;9.90;98.00;;;;;;4992322;28;20465;-62
2023/04/17 06:18:08;;;;;;;10.73;4.73;;;10.00;98.00;;;;;;4992390;28;20469;-62
2023/04/17 06:20:36;;;;;;;11.80;4.60;;;9.90;98.00;;;;;;4992456;28;20551;-62
2023/04/17 06:23:03;;;;;;;12.67;4.80;;;9.70;98.00;;;;;;4992652;28;20465;-62
2023/04/17 06:25:30;;;;;;;12.43;4.30;;;9.70;98.00;;;;;;4992379;28;21185;-62
2023/04/17 06:27:58;;;;;;;9.47;4.83;;;9.70;98.00;;;;;;4992470;28;20499;-62
2023/04/17 06:30:25;;;;;;;9.50;4.57;;;9.80;98.00;;;;;;4991242;28;20559;-62
2023/04/17 06:32:52;;;;;;;12.70;5.37;;;9.70;98.00;;;;;;4992360;28;20468;-62
2023/04/17 06:35:21;;;;;;;12.17;4.27;;;9.70;98.00;;;;;;4995884;28;20518;-62
2023/04/17 06:37:48;;;;;;;12.40;5.10;;;9.70;98.00;;;;;;4996359;28;20521;-62
2023/04/17 06:40:15;;;;;;;6.97;3.57;;;9.70;98.00;;;;;;4996514;28;20526;-61
2023/04/17 06:42:42;;;;;;;6.83;3.80;;;9.80;98.00;;;;;;4996276;28;20460;-62
2023/04/17 06:45:12;;;;;;;7.90;4.27;;;9.80;98.00;;;;;;4995871;28;20478;-63
2023/04/17 06:47:41;;;;;;;11.43;4.90;;;9.90;98.00;;;;;;4996158;28;20463;-62
2023/04/17 06:50:11;;;;;;;7.87;3.60;;;9.80;98.00;;;;;;4995825;28;20464;-62
2023/04/17 06:52:40;;;;;;;11.63;4.43;;;9.80;98.00;;;;;;4994809;28;20456;-63
2023/04/17 06:55:08;;;;;;;9.57;4.07;;;9.80;98.00;;;;;;4995624;28;20452;-63
2023/04/17 06:57:37;;;;;;;9.90;4.37;;;9.80;98.00;;;;;;4994967;28;20464;-63
2023/04/17 07:00:06;;;;;;;9.73;3.90;;;9.80;98.00;;;;;;4995103;28;20495;-63
2023/04/17 07:02:34;;;;;;;6.57;3.50;;;9.90;98.00;;;;;;4995158;28;20470;-63
2023/04/17 07:05:01;;;;;;;5.70;3.23;;;10.10;98.00;;;;;;4995621;28;20484;-63
2023/04/17 07:07:29;;;;;;;6.00;3.40;;;10.30;98.00;;;;;;4995791;28;20831;-63
2023/04/17 07:09:59;;;;;;;7.33;3.90;;;10.40;98.00;;;;;;4995566;28;20546;-62
2023/04/17 07:12:26;;;;;;;7.37;3.20;;;10.50;98.00;;;;;;4994402;28;20543;-62
2023/04/17 07:14:53;;;;;;;6.70;3.33;;;10.60;98.00;;;;;;4995750;28;20458;-63
2023/04/17 07:17:20;;;;;;;8.03;3.87;;;10.60;98.00;;;;;;4995631;28;20461;-63
2023/04/17 07:19:49;;;;;;;6.23;3.10;;;10.60;98.00;;;;;;4994573;28;20456;-62
2023/04/17 07:22:16;;;;;;;7.50;3.23;;;10.70;98.00;;;;;;4995414;28;20520;-63
2023/04/17 07:24:44;;;;;;;4.70;2.63;;;10.60;98.00;;;;;;4995292;28;20456;-62
2023/04/17 07:27:13;;;;;;;6.33;2.77;;;10.60;98.00;;;;;;4994201;28;20541;-63
2023/04/17 07:29:40;;;;;;;9.40;3.90;;;10.40;98.00;;;;;;4995478;28;20511;-63
2023/04/17 07:32:07;;;;;;;6.43;3.40;;;10.40;98.00;;;;;;4995142;28;20467;-62
2023/04/17 07:34:34;;;;;;;6.13;3.30;;;10.40;98.00;;;;;;4995484;28;20448;-62
2023/04/17 07:37:01;;;;;;;5.63;3.10;;;10.40;98.00;;;;;;4988959;28;20500;-63
2023/04/17 07:39:30;;;;;;;7.30;3.30;;;10.40;98.00;;;;;;4984043;28;20464;-63
2023/04/17 07:41:57;;;;;;;12.20;3.50;;;10.30;98.00;;;;;;4983028;28;20978;-63
2023/04/17 07:44:26;;;;;;;5.83;3.20;;;10.40;98.00;;;;;;4985088;28;20959;-63
2023/04/17 07:46:53;;;;;;;6.13;2.93;;;10.30;98.00;;;;;;4994187;28;20494;-63
2023/04/17 07:49:20;;;;;;;8.27;2.90;;;10.40;98.00;;;;;;4994828;28;20469;-61
2023/04/17 07:51:48;;;;;;;5.40;3.27;;;10.40;98.00;;;;;;4993493;28;20467;-62
2023/04/17 07:54:17;;;;;;;5.67;3.13;;;10.30;98.00;;;;;;4994473;28;20522;-62
2023/04/17 07:56:45;;;;;;;4.40;2.77;;;10.30;98.00;;;;;;4994681;28;20491;-62
2023/04/17 07:59:12;;;;;;;7.13;3.03;;;10.40;98.00;;;;;;4994559;28;21034;-62
2023/04/17 08:01:40;;;;;;;7.00;3.10;;;10.60;98.00;;;;;;4994604;28;20465;-61
2023/04/17 08:04:08;;;;;;;4.50;2.20;;;10.60;98.00;;;;;;4994407;28;20466;-63
2023/04/17 08:06:35;;;;;;;6.33;2.97;;;10.60;98.00;;;;;;4994509;28;20491;-62
2023/04/17 08:09:03;;;;;;;7.20;3.80;;;10.50;98.00;;;;;;4993298;28;20464;-61
2023/04/17 08:11:30;;;;;;;6.67;3.47;;;10.50;98.00;;;;;;4993405;28;20463;-62
2023/04/17 08:13:57;;;;;;;6.80;3.30;;;10.50;98.00;;;;;;4994446;28;20460;-62
2023/04/17 08:16:25;;;;;;;5.97;2.90;;;10.50;98.00;;;;;;4993953;28;20857;-62
2023/04/17 08:21:22;;;;;;;5.57;2.77;;;10.60;98.00;;;;;;4991688;28;20828;-62
2023/04/17 08:23:49;;;;;;;6.53;3.30;;;10.60;98.00;;;;;;4993513;28;20486;-62
2023/04/17 08:26:19;;;;;;;5.37;3.20;;;10.60;98.00;;;;;;4992849;28;20485;-62
2023/04/17 08:28:46;;;;;;;5.27;3.27;;;10.60;98.00;;;;;;4993438;28;20462;-62
2023/04/17 08:31:13;;;;;;;5.00;3.13;;;10.60;98.00;;;;;;4993404;28;20515;-62
2023/04/17 08:33:41;;;;;;;7.33;2.73;;;10.60;98.00;;;;;;4993829;28;20464;-62
2023/04/17 08:36:09;;;;;;;5.40;3.00;;;10.60;98.00;;;;;;4993918;28;20897;-62
2023/04/17 08:38:38;;;;;;;4.80;3.00;;;10.80;98.00;;;;;;4993671;28;20468;-62
2023/04/17 08:41:11;;;;;;;4.10;2.53;;;10.80;98.00;;;;;;4976177;28;20608;-62
2023/04/17 08:43:41;;;;;;;7.63;3.50;;;10.80;98.00;;;;;;4993539;28;20459;-62
2023/04/17 08:46:08;;;;;;;4.10;2.57;;;11.00;98.00;;;;;;4993340;28;20495;-62
2023/04/17 08:48:35;;;;;;;9.30;3.20;;;11.20;98.00;;;;;;4993415;28;20521;-62
2023/04/17 08:51:03;;;;;;;4.80;2.80;;;11.30;98.00;;;;;;4993371;28;20974;-62
2023/04/17 08:53:30;;;;;;;3.53;2.43;;;11.40;98.00;;;;;;4992384;28;20514;-62
2023/04/17 08:56:04;;;;;;;4.67;2.37;;;11.50;98.00;;;;;;4993325;28;21087;-62
2023/04/17 08:58:32;;;;;;;4.47;2.50;;;11.40;98.00;;;;;;4992251;28;20557;-62
2023/04/17 09:01:10;;;;;;;4.03;2.13;;;11.50;98.00;;;;;;4993189;28;20521;-62
2023/04/17 09:03:41;;;;;;;5.50;1.90;;;11.60;98.00;;;;;;4993211;28;20571;-62
2023/04/17 09:06:10;;;;;;;2.40;1.87;;;11.60;98.00;;;;;;4993246;28;20484;-62
2023/04/17 09:08:37;;;;;;;3.20;2.00;;;11.60;98.00;;;;;;4992930;28;20545;-62
2023/04/17 09:11:16;;;;;;;2.97;1.90;;;11.70;98.00;;;;;;4993198;28;20985;-62
2023/04/17 09:13:43;;;;;;;2.80;2.20;;;11.70;98.00;;;;;;4993359;28;20467;-62
2023/04/17 09:16:14;;;;;;;2.90;1.77;;;11.70;98.00;;;;;;4991875;28;20462;-62
2023/04/17 09:18:44;;;;;;;2.30;2.00;;;11.80;98.00;;;;;;4993186;28;20473;-62
2023/04/17 09:21:15;;;;;;;2.73;1.80;;;11.80;98.00;;;;;;4992413;28;20473;-62
2023/04/17 09:23:50;;;;;;;4.03;2.70;;;11.80;98.00;;;;;;4993228;28;20576;-62
2023/04/17 09:26:19;;;;;;;2.87;1.90;;;11.80;98.00;;;;;;4992772;28;20570;-62
2023/04/17 09:29:06;;;;;;;3.87;2.50;;;11.80;98.00;;;;;;4993170;28;21004;-62
2023/04/17 09:31:34;;;;;;;4.00;2.17;;;11.60;98.00;;;;;;4992828;28;20951;-62
2023/04/17 09:34:04;;;;;;;3.90;2.50;;;11.40;98.00;;;;;;4992300;28;20469;-62
2023/04/17 09:36:34;;;;;;;5.27;2.40;;;11.50;98.00;;;;;;4992638;28;20471;-62
2023/04/17 09:39:04;;;;;;;5.20;3.10;;;11.40;98.00;;;;;;4992117;28;20459;-62
2023/04/17 09:41:37;;;;;;;7.27;2.97;;;11.40;98.00;;;;;;4991653;28;20457;-62
2023/04/17 09:44:05;;;;;;;4.97;3.10;;;11.40;98.00;;;;;;4992633;28;20472;-62
2023/04/17 09:46:36;;;;;;;5.13;2.50;;;11.30;98.00;;;;;;4992327;28;20547;-62
2023/04/17 09:49:10;;;;;;;5.27;2.63;;;11.30;98.00;;;;;;4991116;28;20516;-62
2023/04/17 09:51:38;;;;;;;4.30;2.60;;;11.20;98.00;;;;;;4992521;28;20528;-62
2023/04/17 09:54:06;;;;;;;5.17;2.73;;;11.10;98.00;;;;;;4992525;28;20517;-62
2023/04/17 09:56:36;;;;;;;4.63;2.93;;;11.00;98.00;;;;;;4992521;28;20558;-62
2023/04/17 09:59:06;;;;;;;5.40;3.10;;;11.00;98.00;;;;;;4992598;28;20829;-62
2023/04/17 10:01:35;;;;;;;5.37;2.70;;;11.00;98.00;;;;;;4961856;28;20473;-62
2023/04/17 10:04:04;;;;;;;4.50;2.70;;;11.00;98.00;;;;;;4968101;28;20469;-62
2023/04/17 10:06:33;;;;;;;3.53;2.20;;;10.90;98.00;;;;;;4974725;28;20500;-62
2023/04/17 10:09:00;;;;;;;5.20;2.60;;;11.00;98.00;;;;;;4992083;28;20463;-62
2023/04/17 10:11:31;;;;;;;7.20;3.23;;;11.10;98.00;;;;;;4992222;28;20478;-62
2023/04/17 10:14:09;;;;;;;5.97;3.27;;;11.30;98.00;;;;;;4992533;28;20476;-62
2023/04/17 10:16:37;;;;;;;7.43;2.67;;;11.20;98.00;;;;;;4992136;28;20558;-62
2023/04/17 10:19:27;;;;;;;4.90;3.03;;;11.30;98.00;;;;;;4991840;28;20459;-63
2023/04/17 10:22:39;;;;;;;4.97;2.50;;;11.40;98.00;;;;;;4992157;28;20459;-62
2023/04/17 10:25:27;;;;;;;4.67;2.63;;;11.60;98.00;;;;;;5163287;22;20512;-62
2023/04/17 10:27:57;;;;;;;5.20;2.97;;;11.80;98.00;;;;;;5006223;28;20489;-62
2023/04/17 10:30:40;;;;;;;5.83;2.97;;;12.10;98.00;;;;;;5011480;28;20453;-62
2023/04/17 10:33:23;;;;;;;5.23;2.93;;;12.20;98.00;;;;;;5010620;28;20468;-62
2023/04/17 10:35:50;;;;;;;5.60;3.23;;;12.50;98.00;;;;;;5011122;28;20504;-62
2023/04/17 10:38:34;;;;;;;4.40;2.43;;;12.50;98.00;;;;;;5010875;28;20464;-62
2023/04/17 10:41:07;;;;;;;3.53;2.70;;;12.60;98.00;;;;;;5011167;28;20976;-62
2023/04/17 10:43:39;;;;;;;4.37;2.67;;;12.80;98.00;;;;;;4994420;28;20451;-62
2023/04/17 10:46:16;;;;;;;5.83;2.73;;;12.80;98.00;;;;;;5010744;28;21009;-62
2023/04/17 10:48:50;;;;;;;6.50;3.33;;;12.90;98.00;;;;;;5010723;28;20466;-62
2023/04/17 10:51:41;;;;;;;4.80;2.63;;;12.90;98.00;;;;;;5010701;28;20465;-62
2023/04/17 10:54:12;;;;;;;5.50;2.63;;;12.80;98.00;;;;;;5010996;28;20491;-62
2023/04/17 10:56:41;;;;;;;4.43;2.90;;;12.70;98.00;;;;;;5010867;28;20454;-62
2023/04/17 10:59:09;;;;;;;5.87;2.70;;;12.80;98.00;;;;;;5010938;28;20457;-62
2023/04/17 11:01:59;;;;;;;4.90;2.83;;;12.70;98.00;;;;;;5010677;28;20472;-62
2023/04/17 11:04:29;;;;;;;5.80;2.63;;;12.70;98.00;;;;;;5010619;28;20471;-62
2023/04/17 11:06:56;;;;;;;6.40;3.17;;;12.70;98.00;;;;;;5010763;28;20913;-62
2023/04/17 11:09:26;;;;;;;6.73;3.47;;;12.70;98.00;;;;;;5010724;28;20465;-62
2023/04/17 11:11:54;;;;;;;7.00;3.13;;;12.80;98.00;;;;;;5010463;28;20456;-62
2023/04/17 11:14:31;;;;;;;4.27;2.70;;;12.60;98.00;;;;;;5010300;28;20459;-62
2023/04/17 11:17:00;;;;;;;5.00;3.07;;;12.60;98.00;;;;;;4994965;28;20452;-62
2023/04/17 11:19:28;;;;;;;6.60;2.63;;;12.80;98.00;;;;;;5011619;28;20944;-62
2023/04/17 11:21:57;;;;;;;6.20;2.60;;;13.10;98.00;;;;;;5014049;28;20496;-62
2023/04/17 11:24:24;;;;;;;7.13;3.60;;;13.10;98.00;;;;;;5014810;28;20888;-62
2023/04/17 11:26:56;;;;;;;4.60;2.20;;;12.90;98.00;;;;;;5014016;28;20852;-63
2023/04/17 11:29:25;;;;;;;3.40;2.23;;;12.90;98.00;;;;;;5014316;28;20526;-62
2023/04/17 11:31:53;;;;;;;4.60;2.53;;;12.80;98.00;;;;;;5013674;28;20454;-62
2023/04/17 11:34:29;;;;;;;7.70;2.60;;;12.70;98.00;;;;;;5013990;28;20525;-62
2023/04/17 11:36:57;;;;;;;5.53;2.60;;;12.80;98.00;;;;;;5014001;28;20461;-62
2023/04/17 11:39:26;;;;;;;5.13;2.97;;;12.90;98.00;;;;;;5013738;28;20463;-62
2023/04/17 11:41:53;;;;;;;6.47;2.77;;;13.10;98.00;;;;;;5012646;28;20461;-62
2023/04/17 11:44:20;;;;;;;4.33;2.47;;;13.30;98.00;;;;;;5013887;28;20462;-62
2023/04/17 11:46:50;;;;;;;5.87;2.50;;;13.30;98.00;;;;;;5013543;28;20576;-62
2023/04/17 11:49:26;;;;;;;4.20;2.23;;;13.30;98.00;;;;;;5013645;28;20552;-62
2023/04/17 11:51:54;;;;;;;4.17;2.40;;;13.30;98.00;;;;;;5013588;28;20551;-62
2023/04/17 11:54:25;;;;;;;4.47;2.40;;;13.30;98.00;;;;;;5013753;28;20476;-62
2023/04/17 11:57:01;;;;;;;4.20;2.40;;;13.30;98.00;;;;;;5013534;28;20454;-62
2023/04/17 11:59:31;;;;;;;5.20;2.50;;;13.30;98.00;;;;;;5013639;28;20536;-62
2023/04/17 12:02:03;;;;;;;4.87;2.80;;;13.10;98.00;;;;;;5013660;28;20470;-62
2023/04/17 12:04:33;;;;;;;4.50;2.30;;;12.90;98.00;;;;;;5013569;28;20530;-62
2023/04/17 12:07:01;;;;;;;5.17;2.47;;;12.70;98.00;;;;;;5013194;28;20827;-62
2023/04/17 12:09:30;;;;;;;4.10;2.50;;;12.50;98.00;;;;;;5013529;28;20560;-62
2023/04/17 12:12:00;;;;;;;4.27;2.53;;;12.30;98.00;;;;;;5013222;28;20456;-63
2023/04/17 12:14:27;;;;;;;2.77;1.80;;;12.30;98.00;;;;;;5013368;28;20545;-63
2023/04/17 12:16:54;;;;;;;5.23;2.70;;;12.40;98.00;;;;;;5011994;28;20961;-63
2023/04/17 12:19:21;;;;;;;5.37;2.70;;;12.40;98.00;;;;;;5018567;28;21086;-63
2023/04/17 12:21:51;;;;;;;4.03;2.87;;;12.50;98.00;;;;;;5013047;28;20474;-63
2023/04/17 12:24:20;;;;;;;5.90;3.30;;;12.70;98.00;;;;;;5012983;28;20478;-63
2023/04/17 12:26:48;;;;;;;5.00;2.60;;;12.90;98.00;;;;;;5012794;28;20912;-63
2023/04/17 12:29:15;;;;;;;4.30;2.90;;;12.90;98.00;;;;;;5012778;28;20459;-63
2023/04/17 12:31:42;;;;;;;6.83;3.30;;;13.10;98.00;;;;;;5012891;28;20464;-63
2023/04/17 12:34:10;;;;;;;8.10;3.17;;;13.20;98.00;;;;;;5012916;28;21135;-63
2023/04/17 12:36:37;;;;;;;4.53;2.73;;;13.40;98.00;;;;;;5012717;28;20490;-63
2023/04/17 12:39:05;;;;;;;5.00;3.17;;;13.50;98.00;;;;;;5012615;28;20461;-63
2023/04/17 12:41:32;;;;;;;11.03;3.13;;;13.70;98.00;;;;;;5011954;28;20465;-63
2023/04/17 12:44:02;;;;;;;5.60;3.20;;;13.90;98.00;;;;;;5012936;28;20465;-63
2023/04/17 12:46:30;;;;;;;8.43;3.47;;;14.00;98.00;;;;;;4995641;28;20463;-63
2023/04/17 12:48:58;;;;;;;5.60;3.13;;;14.00;98.00;;;;;;5012671;28;20469;-63
2023/04/17 12:51:26;;;;;;;6.93;3.30;;;14.10;98.00;;;;;;5012652;28;20516;-63
2023/04/17 12:53:53;;;;;;;6.50;3.40;;;14.00;98.00;;;;;;5012620;28;20507;-63
2023/04/17 12:56:22;;;;;;;5.30;2.77;;;13.80;98.00;;;;;;5012853;28;20454;-63
2023/04/17 12:58:49;;;;;;;6.80;3.40;;;13.60;98.00;;;;;;5012747;28;20470;-63
2023/04/17 13:01:16;;;;;;;5.80;2.77;;;13.40;98.00;;;;;;5012765;28;20462;-63